createdAt,value
2023-04-01T00:01:50.606Z,9.00
2023-04-01T00:04:17.798Z,10.25
2023-04-01T00:06:44.834Z,11.32
2023-04-01T00:09:11.712Z,11.98
2023-04-01T00:11:39.531Z,12.15
2023-04-01T00:14:07.569Z,11.80
2023-04-01T00:16:34.842Z,12.25
2023-04-01T00:19:02.030Z,12.32
2023-04-01T00:21:29.199Z,12.63
2023-04-01T00:23:57.012Z,11.98
2023-04-01T00:26:25.633Z,11.15
2023-04-01T00:28:52.676Z,11.20
2023-04-01T00:31:20.085Z,10.70
2023-04-01T00:33:47.640Z,10.95
2023-04-01T00:36:17.380Z,11.75
2023-04-01T00:38:45.058Z,12.05
2023-04-01T00:41:15.826Z,10.68
2023-04-01T00:43:45.664Z,11.43
2023-04-01T00:46:13.228Z,11.43
2023-04-01T00:48:45.661Z,11.73
2023-04-01T00:51:18.615Z,11.20
2023-04-01T00:53:50.964Z,10.65
2023-04-01T00:56:28.998Z,9.73
2023-04-01T00:59:01.444Z,10.98
2023-04-01T01:01:31.681Z,11.93
2023-04-01T01:03:58.932Z,10.55
2023-04-01T01:06:44.480Z,9.63
2023-04-01T01:09:22.445Z,9.05
2023-04-01T01:11:56.853Z,9.50
2023-04-01T01:14:42.610Z,8.82
2023-04-01T01:17:31.601Z,10.20
2023-04-01T01:20:26.450Z,8.20
2023-04-01T01:23:09.122Z,8.55
2023-04-01T01:25:46.235Z,7.20
2023-04-01T01:28:24.916Z,8.23
2023-04-01T01:31:38.377Z,7.70
2023-04-01T01:35:04.254Z,7.57
2023-04-01T01:37:32.338Z,7.18
2023-04-01T01:40:36.806Z,7.25
2023-04-01T01:43:46.218Z,6.55
2023-04-01T01:47:05.106Z,7.20
2023-04-01T01:50:08.453Z,7.72
2023-04-01T01:52:37.739Z,6.40
2023-04-01T01:55:26.390Z,6.47
2023-04-01T01:57:53.946Z,6.97
2023-04-01T02:00:21.382Z,6.70
2023-04-01T02:02:49.818Z,6.53
2023-04-01T02:05:22.344Z,5.35
2023-04-01T02:08:15.107Z,6.18
2023-04-01T02:10:45.782Z,6.40
2023-04-01T02:13:28.972Z,6.40
2023-04-01T02:15:59.925Z,5.05
2023-04-01T02:18:27.098Z,5.32
2023-04-01T02:20:54.357Z,6.70
2023-04-01T02:23:21.509Z,6.22
2023-04-01T02:25:50.236Z,6.10
2023-04-01T02:28:21.587Z,5.72
2023-04-01T02:30:51.171Z,5.43
2023-04-01T02:33:20.064Z,6.03
2023-04-01T02:35:50.495Z,5.43
2023-04-01T02:38:17.442Z,6.68
2023-04-01T02:40:50.829Z,6.00
2023-04-01T02:43:18.689Z,6.65
2023-04-01T02:45:45.849Z,6.10
2023-04-01T02:48:14.450Z,6.45
2023-04-01T02:50:41.740Z,6.45
2023-04-01T02:53:09.396Z,6.75
2023-04-01T02:55:36.517Z,6.20
2023-04-01T02:58:03.959Z,6.38
2023-04-01T03:00:31.678Z,6.63
2023-04-01T03:02:58.983Z,7.55
2023-04-01T03:05:26.814Z,6.63
2023-04-01T03:07:53.720Z,6.25
2023-04-01T03:10:21.385Z,5.55
2023-04-01T03:12:48.386Z,7.93
2023-04-01T03:15:15.790Z,6.00
2023-04-01T03:17:43.806Z,7.18
2023-04-01T03:20:12.771Z,7.25
2023-04-01T03:22:42.646Z,6.53
2023-04-01T03:25:11.132Z,7.75
2023-04-01T03:27:40.561Z,7.55
2023-04-01T03:30:10.556Z,7.95
2023-04-01T03:32:46.642Z,7.70
2023-04-01T03:35:13.774Z,8.25
2023-04-01T03:37:41.196Z,8.45
2023-04-01T03:40:08.887Z,8.05
2023-04-01T03:42:36.381Z,8.40
2023-04-01T03:45:04.969Z,7.50
2023-04-01T03:47:32.108Z,8.52
2023-04-01T03:50:02.366Z,8.57
2023-04-01T03:52:32.986Z,8.23
2023-04-01T03:55:00.439Z,8.30
2023-04-01T03:57:28.033Z,8.00
2023-04-01T03:59:59.671Z,8.63
2023-04-01T04:02:27.791Z,7.70
2023-04-01T04:04:55.085Z,7.97
2023-04-01T04:07:22.704Z,7.70
2023-04-01T04:10:00.998Z,7.30
2023-04-01T04:12:28.217Z,7.47
2023-04-01T04:14:55.257Z,7.13
2023-04-01T04:17:22.457Z,7.60
2023-04-01T04:19:49.589Z,8.43
2023-04-01T04:22:17.562Z,7.80
2023-04-01T04:24:44.634Z,7.43
2023-04-01T04:27:14.058Z,8.00
2023-04-01T04:29:56.080Z,7.35
2023-04-01T04:32:23.324Z,7.55
2023-04-01T04:34:50.477Z,7.22
2023-04-01T04:37:19.168Z,6.57
2023-04-01T04:39:46.147Z,5.95
2023-04-01T04:42:13.258Z,5.40
2023-04-01T04:44:41.052Z,5.78
2023-04-01T04:47:08.174Z,7.35
2023-04-01T04:49:35.567Z,8.30
2023-04-01T04:52:07.112Z,7.13
2023-04-01T04:54:34.360Z,6.88
2023-04-01T04:59:35.754Z,6.82
2023-04-01T05:02:11.099Z,7.13
2023-04-01T05:04:38.376Z,6.85
2023-04-01T05:07:09.232Z,6.70
2023-04-01T05:09:36.661Z,7.25
2023-04-01T05:12:04.616Z,6.05
2023-04-01T05:14:51.722Z,6.50
2023-04-01T05:17:18.918Z,6.78
2023-04-01T05:19:46.033Z,6.88
2023-04-01T05:22:13.132Z,7.55
2023-04-01T05:24:41.430Z,6.20
2023-04-01T05:27:08.555Z,6.82
2023-04-01T05:29:39.320Z,6.47
2023-04-01T05:32:11.347Z,6.30
2023-04-01T05:34:38.737Z,6.50
2023-04-01T05:37:06.100Z,5.90
2023-04-01T05:39:37.018Z,7.07
2023-04-01T05:42:04.397Z,6.80
2023-04-01T05:44:31.996Z,6.82
2023-04-01T05:47:08.201Z,6.13
2023-04-01T05:49:36.550Z,6.00
2023-04-01T05:52:06.054Z,5.57
2023-04-01T05:54:36.193Z,5.90
2023-04-01T05:57:03.644Z,5.95
2023-04-01T05:59:32.363Z,6.22
2023-04-01T06:02:00.001Z,4.95
2023-04-01T06:04:33.951Z,4.78
2023-04-01T06:07:01.463Z,5.47
2023-04-01T06:09:31.437Z,4.10
2023-04-01T06:12:43.821Z,4.60
2023-04-01T06:15:16.562Z,4.88
2023-04-01T06:18:14.658Z,5.20
2023-04-01T06:20:59.886Z,4.05
2023-04-01T06:24:04.376Z,3.75
2023-04-01T06:27:06.234Z,3.97
2023-04-01T06:30:04.653Z,5.03
2023-04-01T06:32:55.192Z,4.80
2023-04-01T06:35:28.561Z,4.00
2023-04-01T06:38:30.851Z,4.93
2023-04-01T06:41:31.143Z,4.43
2023-04-01T06:44:02.126Z,4.60
2023-04-01T06:47:00.784Z,4.68
2023-04-01T06:50:28.412Z,4.45
2023-04-01T06:53:22.623Z,4.70
2023-04-01T06:56:13.887Z,5.82
2023-04-01T06:59:18.834Z,3.97
2023-04-01T07:02:11.542Z,5.25
2023-04-01T07:04:46.133Z,8.57
2023-04-01T07:07:44.699Z,5.38
2023-04-01T07:10:29.214Z,4.30
2023-04-01T07:13:25.335Z,4.38
2023-04-01T07:16:06.704Z,4.35
2023-04-01T07:19:04.024Z,5.28
2023-04-01T07:21:54.191Z,3.95
2023-04-01T07:24:37.720Z,3.85
2023-04-01T07:27:15.122Z,5.88
2023-04-01T07:29:44.311Z,4.30
2023-04-01T07:32:25.351Z,4.72
2023-04-01T07:37:48.805Z,4.60
2023-04-01T07:40:46.934Z,4.63
2023-04-01T07:43:49.406Z,4.80
2023-04-01T07:46:27.574Z,4.70
2023-04-01T07:49:01.683Z,4.28
2023-04-01T07:51:59.817Z,5.05
2023-04-01T07:54:48.183Z,5.22
2023-04-01T07:57:20.345Z,5.80
2023-04-01T08:00:07.656Z,5.35
2023-04-01T08:03:29.133Z,4.75
2023-04-01T08:06:00.935Z,5.15
2023-04-01T08:08:51.952Z,4.85
2023-04-01T08:12:02.062Z,4.75
2023-04-01T08:14:57.116Z,4.80
2023-04-01T08:18:30.805Z,4.88
2023-04-01T08:21:12.811Z,4.63
2023-04-01T08:23:46.215Z,5.32
2023-04-01T08:26:46.213Z,5.32
2023-04-01T08:29:19.466Z,5.10
2023-04-01T08:32:10.085Z,4.57
2023-04-01T08:34:40.061Z,4.38
2023-04-01T08:37:27.153Z,3.88
2023-04-01T08:40:11.809Z,4.28
2023-04-01T08:43:07.991Z,4.93
2023-04-01T08:46:01.041Z,3.90
2023-04-01T08:48:43.276Z,4.13
2023-04-01T08:51:27.967Z,4.07
2023-04-01T08:54:27.001Z,3.45
2023-04-01T08:57:42.461Z,4.38
2023-04-01T09:00:53.222Z,4.15
2023-04-01T09:04:32.232Z,3.40
2023-04-01T09:07:43.486Z,3.17
2023-04-01T09:10:26.862Z,3.10
2023-04-01T09:13:09.390Z,2.60
2023-04-01T09:16:15.915Z,3.08
2023-04-01T09:19:00.714Z,2.78
2023-04-01T09:22:00.353Z,3.00
2023-04-01T09:25:07.224Z,3.03
2023-04-01T09:27:55.063Z,2.50
2023-04-01T09:30:36.170Z,2.63
2023-04-01T09:33:28.011Z,3.47
2023-04-01T09:35:58.381Z,2.30
2023-04-01T09:39:13.151Z,2.70
2023-04-01T09:42:09.195Z,2.85
2023-04-01T09:44:58.623Z,2.90
2023-04-01T09:47:37.002Z,2.60
2023-04-01T09:50:07.228Z,2.88
2023-04-01T09:52:46.786Z,2.50
2023-04-01T09:55:46.811Z,2.80
2023-04-01T09:58:43.590Z,3.77
2023-04-01T10:01:51.131Z,2.88
2023-04-01T10:05:13.204Z,2.80
2023-04-01T10:08:17.871Z,3.30
2023-04-01T10:10:51.122Z,2.80
2023-04-01T10:13:47.798Z,3.22
2023-04-01T10:16:35.308Z,2.75
2023-04-01T10:19:41.201Z,3.10
2023-04-01T10:23:03.143Z,3.47
2023-04-01T10:25:43.895Z,3.65
2023-04-01T10:28:36.611Z,2.83
2023-04-01T10:31:45.695Z,3.10
2023-04-01T10:34:21.803Z,3.00
2023-04-01T10:36:57.036Z,2.60
2023-04-01T10:39:53.295Z,3.00
2023-04-01T10:42:55.766Z,3.15
2023-04-01T10:45:58.884Z,2.45
2023-04-01T10:48:45.575Z,2.80
2023-04-01T10:51:34.435Z,3.38
2023-04-01T10:54:40.824Z,2.97
2023-04-01T10:57:38.899Z,2.90
2023-04-01T11:00:50.619Z,3.40
2023-04-01T11:03:59.793Z,2.88
2023-04-01T11:07:08.096Z,3.08
2023-04-01T11:09:50.678Z,3.22
2023-04-01T11:12:32.923Z,3.28
2023-04-01T11:15:22.079Z,2.95
2023-04-01T11:18:24.488Z,3.63
2023-04-01T11:21:05.070Z,3.78
2023-04-01T11:23:44.039Z,4.13
2023-04-01T11:26:15.942Z,3.35
2023-04-01T11:29:11.134Z,3.63
2023-04-01T11:31:48.458Z,3.22
2023-04-01T11:34:49.968Z,2.60
2023-04-01T11:37:26.164Z,2.00
2023-04-01T11:40:48.989Z,2.25
2023-04-01T11:43:48.878Z,2.08
2023-04-01T11:46:47.905Z,2.25
2023-04-01T11:49:37.899Z,2.45
2023-04-01T11:52:28.024Z,2.58
2023-04-01T11:55:07.331Z,2.88
2023-04-01T11:57:49.679Z,2.58
2023-04-01T12:00:47.776Z,2.47
2023-04-01T12:03:53.120Z,2.80
2023-04-01T12:06:29.375Z,2.92
2023-04-01T12:09:10.340Z,3.08
2023-04-01T12:12:00.268Z,2.75
2023-04-01T12:14:27.631Z,2.80
2023-04-01T12:17:22.513Z,3.00
2023-04-01T12:20:27.899Z,3.15
2023-04-01T12:22:54.674Z,3.40
2023-04-01T12:25:47.905Z,4.00
2023-04-01T12:28:17.854Z,4.03
2023-04-01T12:31:06.195Z,3.78
2023-04-01T12:34:01.394Z,3.55
2023-04-01T12:36:42.097Z,3.55
2023-04-01T12:39:40.715Z,3.88
2023-04-01T12:42:32.103Z,3.63
2023-04-01T12:45:33.236Z,3.65
2023-04-01T12:48:18.942Z,3.35
2023-04-01T12:51:23.672Z,4.90
2023-04-01T12:54:28.198Z,3.80
2023-04-01T12:56:55.426Z,4.03
2023-04-01T12:59:37.766Z,3.72
2023-04-01T13:02:23.150Z,3.60
2023-04-01T13:05:17.128Z,3.72
2023-04-01T13:08:13.817Z,3.13
2023-04-01T13:10:59.332Z,3.88
2023-04-01T13:13:40.032Z,5.82
2023-04-01T13:16:18.444Z,3.65
2023-04-01T13:19:09.157Z,2.80
2023-04-01T13:21:36.153Z,3.35
2023-04-01T13:24:23.770Z,3.38
2023-04-01T13:27:21.533Z,3.45
2023-04-01T13:29:57.507Z,3.65
2023-04-01T13:32:49.372Z,3.40
2023-04-01T13:35:37.573Z,3.42
2023-04-01T13:38:21.644Z,3.75
2023-04-01T13:41:16.454Z,3.67
2023-04-01T13:43:49.343Z,3.20
2023-04-01T13:46:53.055Z,2.97
2023-04-01T13:49:33.045Z,3.20
2023-04-01T13:52:12.456Z,3.30
2023-04-01T13:57:38.683Z,3.65
2023-04-01T14:00:34.151Z,3.53
2023-04-01T14:03:30.040Z,3.08
2023-04-01T14:06:03.536Z,3.35
2023-04-01T14:08:45.323Z,3.92
2023-04-01T14:11:18.521Z,5.05
2023-04-01T14:13:51.696Z,4.53
2023-04-01T14:16:40.817Z,3.97
2023-04-01T14:19:34.374Z,3.80
2023-04-01T14:22:29.038Z,4.20
2023-04-01T14:25:23.854Z,3.75
2023-04-01T14:27:56.172Z,3.67
2023-04-01T14:30:57.500Z,6.45
2023-04-01T14:33:40.832Z,3.50
2023-04-01T14:36:19.864Z,4.15
2023-04-01T14:39:10.381Z,2.58
2023-04-01T14:42:06.140Z,3.25
2023-04-01T14:44:42.254Z,3.13
2023-04-01T14:47:18.289Z,3.35
2023-04-01T14:50:10.576Z,3.88
2023-04-01T14:52:41.422Z,3.30
2023-04-01T14:55:44.171Z,3.08
2023-04-01T14:58:18.284Z,2.85
2023-04-01T15:00:55.143Z,3.05
2023-04-01T15:04:12.026Z,2.97
2023-04-01T15:07:13.823Z,2.70
2023-04-01T15:10:05.829Z,2.85
2023-04-01T15:12:34.590Z,2.95
2023-04-01T15:15:41.108Z,3.17
2023-04-01T15:18:45.425Z,3.00
2023-04-01T15:21:22.743Z,2.58
2023-04-01T15:24:07.962Z,2.65
2023-04-01T15:26:41.125Z,2.40
2023-04-01T15:29:58.899Z,2.42
2023-04-01T15:32:25.912Z,2.45
2023-04-01T15:35:21.902Z,1.90
2023-04-01T15:38:10.190Z,2.90
2023-04-01T15:41:09.160Z,2.75
2023-04-01T15:43:54.865Z,2.80
2023-04-01T15:46:51.264Z,3.08
2023-04-01T15:49:45.034Z,2.85
2023-04-01T15:52:45.154Z,2.13
2023-04-01T15:55:38.261Z,1.23
2023-04-01T15:58:32.772Z,2.20
2023-04-01T16:01:08.791Z,2.20
2023-04-01T16:03:57.820Z,2.60
2023-04-01T16:06:57.424Z,3.45
2023-04-01T16:09:49.213Z,4.20
2023-04-01T16:12:27.856Z,3.97
2023-04-01T16:15:10.473Z,3.63
2023-04-01T16:18:04.945Z,4.18
2023-04-01T16:20:57.722Z,4.15
2023-04-01T16:23:50.269Z,3.75
2023-04-01T16:26:27.509Z,3.75
2023-04-01T16:29:00.567Z,4.15
2023-04-01T16:31:44.076Z,4.63
2023-04-01T16:34:36.239Z,4.47
2023-04-01T16:37:21.316Z,4.47
2023-04-01T16:40:03.784Z,3.85
2023-04-01T16:42:52.465Z,4.30
2023-04-01T16:45:38.244Z,3.40
2023-04-01T16:48:19.490Z,2.90
2023-04-01T16:51:10.999Z,2.72
2023-04-01T16:53:49.439Z,2.90
2023-04-01T16:56:24.911Z,2.80
2023-04-01T16:59:08.680Z,2.75
2023-04-01T17:01:58.646Z,2.70
2023-04-01T17:04:31.884Z,2.30
2023-04-01T17:07:21.530Z,2.22
2023-04-01T17:10:06.921Z,2.30
2023-04-01T17:12:33.907Z,2.10
2023-04-01T17:15:06.921Z,1.88
2023-04-01T17:17:55.992Z,2.05
2023-04-01T17:20:43.237Z,2.05
2023-04-01T17:23:23.342Z,1.90
2023-04-01T17:26:03.322Z,2.13
2023-04-01T17:28:43.061Z,2.28
2023-04-01T17:31:24.908Z,2.05
2023-04-01T17:34:13.801Z,2.20
2023-04-01T17:37:18.596Z,1.77
2023-04-01T17:39:57.799Z,2.15
2023-04-01T17:42:48.121Z,2.40
2023-04-01T17:45:23.946Z,2.20
2023-04-01T17:47:51.541Z,2.08
2023-04-01T17:50:37.499Z,2.50
2023-04-01T17:53:23.442Z,2.30
2023-04-01T17:56:01.440Z,2.35
2023-04-01T17:58:43.629Z,2.50
2023-04-01T18:01:21.147Z,2.67
2023-04-01T18:04:17.698Z,5.10
2023-04-01T18:07:41.290Z,4.65
2023-04-01T18:10:47.632Z,4.13
2023-04-01T18:13:42.671Z,4.03
2023-04-01T18:16:19.169Z,3.80
2023-04-01T18:19:15.915Z,4.32
2023-04-01T18:21:51.398Z,3.58
2023-04-01T18:24:24.507Z,2.97
2023-04-01T18:27:02.007Z,3.10
2023-04-01T18:29:28.934Z,3.00
2023-04-01T18:32:10.600Z,31.63
2023-04-01T18:35:10.019Z,3.45
2023-04-01T18:37:56.975Z,3.28
2023-04-01T18:40:31.193Z,3.35
2023-04-01T18:43:24.626Z,3.00
2023-04-01T18:46:13.053Z,4.32
2023-04-01T18:48:49.261Z,3.58
2023-04-01T18:51:22.956Z,2.47
2023-04-01T18:54:11.174Z,2.92
2023-04-01T18:56:45.135Z,3.03
2023-04-01T18:59:28.498Z,2.83
2023-04-01T19:02:30.512Z,3.28
2023-04-01T19:05:02.303Z,3.95
2023-04-01T19:07:44.864Z,4.10
2023-04-01T19:10:22.946Z,4.35
2023-04-01T19:13:11.829Z,4.07
2023-04-01T19:16:01.468Z,3.20
2023-04-01T19:19:00.584Z,2.60
2023-04-01T19:21:30.491Z,2.80
2023-04-01T19:24:47.975Z,2.50
2023-04-01T19:28:00.719Z,1.70
2023-04-01T19:30:58.000Z,1.80
2023-04-01T19:34:18.918Z,1.80
2023-04-01T19:36:57.876Z,2.20
2023-04-01T19:39:31.889Z,1.63
2023-04-01T19:42:13.131Z,1.85
2023-04-01T19:44:52.274Z,1.83
2023-04-01T19:47:35.811Z,2.15
2023-04-01T19:50:36.190Z,2.60
2023-04-01T19:53:33.441Z,1.90
2023-04-01T19:56:09.185Z,1.95
2023-04-01T19:58:55.507Z,2.30
2023-04-01T20:01:44.855Z,2.80
2023-04-01T20:04:22.239Z,2.58
2023-04-01T20:07:07.634Z,2.40
2023-04-01T20:09:43.553Z,2.05
2023-04-01T20:12:58.306Z,1.90
2023-04-01T20:15:34.063Z,2.25
2023-04-01T20:18:23.198Z,2.00
2023-04-01T20:21:19.020Z,1.85
2023-04-01T20:24:07.403Z,2.65
2023-04-01T20:26:43.595Z,2.50
2023-04-01T20:29:22.793Z,2.60
2023-04-01T20:32:06.080Z,2.50
2023-04-01T20:34:57.837Z,2.25
2023-04-01T20:37:36.761Z,2.20
2023-04-01T20:40:23.168Z,2.80
2023-04-01T20:43:12.057Z,2.10
2023-04-01T20:45:59.197Z,2.35
2023-04-01T20:49:04.208Z,2.47
2023-04-01T20:51:35.963Z,2.95
2023-04-01T20:54:14.821Z,2.60
2023-04-01T20:57:06.281Z,2.28
2023-04-01T21:00:05.925Z,2.60
2023-04-01T21:02:45.358Z,2.63
2023-04-01T21:05:30.975Z,1.98
2023-04-01T21:08:23.170Z,2.00
2023-04-01T21:11:16.867Z,2.42
2023-04-01T21:13:59.349Z,2.65
2023-04-01T21:17:05.287Z,1.60
2023-04-01T21:19:41.998Z,1.58
2023-04-01T21:22:27.364Z,2.00
2023-04-01T21:25:01.535Z,1.70
2023-04-01T21:27:40.290Z,1.58
2023-04-01T21:30:44.606Z,1.60
2023-04-01T21:33:21.983Z,1.48
2023-04-01T21:36:35.637Z,1.42
2023-04-01T21:39:26.938Z,1.70
2023-04-01T21:42:06.218Z,1.70
2023-04-01T21:45:07.568Z,2.42
2023-04-01T21:47:34.521Z,1.52
2023-04-01T21:50:13.819Z,1.75
2023-04-01T21:53:12.954Z,1.90
2023-04-01T21:58:09.649Z,1.70
2023-04-01T22:00:37.367Z,2.05
2023-04-01T22:03:27.718Z,2.00
2023-04-01T22:06:04.598Z,4.18
2023-04-01T22:08:43.446Z,1.55
2023-04-01T22:11:33.722Z,1.42
2023-04-01T22:14:27.407Z,1.77
2023-04-01T22:16:57.333Z,2.95
2023-04-01T22:19:36.688Z,2.10
2023-04-01T22:25:01.881Z,1.85
2023-04-01T22:27:43.278Z,1.60
2023-04-01T22:30:25.603Z,1.90
2023-04-01T22:33:17.385Z,1.67
2023-04-01T22:35:56.772Z,2.33
2023-04-01T22:41:42.913Z,7.25
2023-04-01T22:44:42.036Z,4.35
2023-04-01T22:47:40.232Z,5.18
2023-04-01T22:50:25.464Z,5.63
2023-04-01T22:53:08.216Z,5.03
2023-04-01T22:55:39.358Z,3.38
2023-04-01T22:58:33.801Z,2.53
2023-04-01T23:01:07.486Z,2.35
2023-04-01T23:03:41.392Z,2.03
2023-04-01T23:06:27.445Z,2.15
2023-04-01T23:09:27.038Z,1.45
2023-04-01T23:12:07.534Z,1.40
2023-04-01T23:14:45.159Z,1.50
2023-04-01T23:17:26.816Z,1.70
2023-04-01T23:20:07.772Z,1.92
2023-04-01T23:23:06.998Z,1.73
2023-04-01T23:25:55.330Z,1.50
2023-04-01T23:28:51.825Z,1.83
2023-04-01T23:31:40.011Z,1.23
2023-04-01T23:34:06.930Z,1.05
2023-04-01T23:36:40.168Z,0.75
2023-04-01T23:39:33.370Z,0.85
2023-04-01T23:42:05.710Z,1.00
2023-04-01T23:44:34.900Z,0.70
2023-04-01T23:47:04.355Z,0.85
2023-04-01T23:49:37.989Z,1.50
2023-04-01T23:52:14.133Z,1.20
2023-04-01T23:54:55.319Z,0.90
2023-04-01T23:57:28.293Z,1.08
